This is the latest recevied weather packets stored in our database for station/object N8QYG-1. If no packets are shown the sender has not sent any weather packets the latest 1 day(s).
| Time | Temp. | Humidity | Pressure | Rain* | Wind** | Luminosity | Snow |
|---|---|---|---|---|---|---|---|
| 1777974018 | 13.33° C | 8% | - | 0 mm | 0.45 m/s, 202° | - | - |
| 1777973420 | 13.33° C | 8% | - | 0 mm | 0.45 m/s, 205° | - | - |
| 1777972819 | 13.33° C | 8% | - | 0 mm | 1.34 m/s, 234° | - | - |
| 1777972219 | 13.33° C | 8% | - | 0 mm | 0.89 m/s, 238° | - | - |
| 1777971617 | 13.33° C | 8% | - | 0 mm | 1.79 m/s, 273° | - | - |
| 1777971020 | 13.33° C | 9% | - | 0 mm | 0.45 m/s, 175° | - | - |
| 1777970418 | 13.33° C | 9% | - | 0 mm | 0.89 m/s, 244° | - | - |
| 1777969819 | 13.33° C | 9% | - | 0 mm | 0.89 m/s, 236° | - | - |
| 1777969219 | 13.33° C | 9% | - | 0 mm | 1.34 m/s, 233° | - | - |
| 1777968619 | 13.33° C | 9% | - | 0 mm | 2.24 m/s, 269° | - | - |
| 1777968017 | 13.33° C | 9% | - | 0 mm | 0.89 m/s, 249° | - | - |
| 1777967419 | 13.33° C | 9% | - | 0 mm | 0.45 m/s, 250° | - | - |
| 1777966818 | 13.33° C | 9% | - | 0 mm | 0.89 m/s, 238° | - | - |
| 1777966220 | 13.33° C | 9% | - | 0 mm | 0.45 m/s, 238° | - | - |
| 1777965618 | 13.33° C | 9% | - | 0 mm | 0.45 m/s, 236° | - | - |
| 1777965019 | 13.33° C | 9% | - | 0 mm | 0 m/s | - | - |
| 1777964419 | 13.33° C | 9% | - | 0 mm | 0.45 m/s, 235° | - | - |
| 1777963818 | 13.89° C | 9% | - | 0 mm | 0.45 m/s, 258° | - | - |
| 1777963218 | 13.89° C | 8% | - | 0 mm | 1.34 m/s, 256° | - | - |
| 1777962620 | 13.89° C | 8% | - | 0 mm | 1.34 m/s, 261° | - | - |
| 1777962019 | 13.89° C | 8% | - | 0 mm | 3.13 m/s, 263° | - | - |
| 1777961631 | 13.89° C | 8% | - | 0 mm | 1.34 m/s, 220° | - | - |
| 1777961418 | 13.89° C | 8% | - | 0 mm | 1.34 m/s, 220° | - | - |
* Rain latest hour (hover to see other rain measurements)
** Current wind speed in m/s (hover to see current wind gust speed)